Time;durP1;ratioP1;P1;durP2;ratioP2;P2;SDS_P1;SDS_P2;PMS_P1;PMS_P2;Temp;Humidity;BMP_temperature;BMP_pressure;BME280_temperature;BME280_humidity;BME280_pressure;Samples;Min_cycle;Max_cycle;Signal;HPM_P1;HPM_P2
2021/08/18 00:01:13;;;;;;;7.25;4.53;;;;;;;20.49;76.64;98680.84;1889918;76;22132;-63
2021/08/18 00:03:49;;;;;;;6.37;4.37;;;;;;;20.44;77.35;98677.52;1870659;76;22137;-63
2021/08/18 00:06:23;;;;;;;7.72;4.50;;;;;;;20.40;77.65;98683.75;1870668;76;22137;-61
2021/08/18 00:08:58;;;;;;;6.80;4.65;;;;;;;20.38;78.11;98686.45;1835233;77;22149;-64
2021/08/18 00:11:33;;;;;;;7.42;4.67;;;;;;;20.36;78.99;98687.41;1870785;76;22261;-64
2021/08/18 00:14:14;;;;;;;7.12;4.65;;;;;;;20.33;79.25;98688.83;1869800;76;22140;-65
2021/08/18 00:16:48;;;;;;;8.25;4.75;;;;;;;20.33;79.65;98688.36;1889978;76;22112;-66
2021/08/18 00:19:23;;;;;;;10.65;5.03;;;;;;;20.33;79.74;98686.20;1870676;76;22121;-64
2021/08/18 00:22:05;;;;;;;7.58;4.75;;;;;;;20.34;80.16;98695.77;1890092;76;22699;-56
2021/08/18 00:24:46;;;;;;;8.28;4.83;;;;;;;20.33;80.47;98687.52;1869815;76;22185;-60
2021/08/18 00:27:20;;;;;;;10.25;5.08;;;;;;;20.35;80.71;98698.78;1870671;76;22149;-64
2021/08/18 00:29:56;;;;;;;9.23;4.90;;;;;;;20.36;80.94;98697.42;1854647;76;27909;-57
2021/08/18 00:32:31;;;;;;;6.67;4.47;;;;;;;20.37;81.18;98699.13;1889976;76;22103;-57
2021/08/18 00:35:08;;;;;;;7.70;4.85;;;;;;;20.35;81.26;98704.02;1854716;76;28178;-64
2021/08/18 00:37:43;;;;;;;9.95;5.42;;;;;;;20.42;81.50;98708.16;1870716;76;22560;-62
2021/08/18 00:40:19;;;;;;;8.83;5.05;;;;;;;20.42;81.47;98705.53;1870681;76;22133;-58
2021/08/18 00:43:15;;;;;;;7.42;4.65;;;;;;;20.42;81.62;98707.30;1889985;76;22136;-62
2021/08/18 00:45:51;;;;;;;8.83;4.90;;;;;;;20.37;81.75;98701.75;1870600;76;22105;-63
2021/08/18 00:48:26;;;;;;;8.25;5.70;;;;;;;20.39;81.80;98701.25;1873921;76;27923;-65
2021/08/18 00:51:20;;;;;;;7.87;5.33;;;;;;;20.50;81.86;98700.89;1870656;76;22144;-58
2021/08/18 00:53:54;;;;;;;13.08;5.33;;;;;;;20.47;82.01;98704.92;1870654;76;22149;-61
2021/08/18 00:56:30;;;;;;;9.33;5.37;;;;;;;20.44;82.41;98703.72;1870652;76;22165;-59
2021/08/18 00:59:08;;;;;;;10.70;5.12;;;;;;;20.43;82.79;98707.70;1870592;76;22109;-60
2021/08/18 01:01:43;;;;;;;10.00;5.60;;;;;;;20.38;82.99;98714.42;1889955;76;22164;-66
2021/08/18 01:04:38;;;;;;;10.03;5.80;;;;;;;20.37;83.09;98712.70;1878951;75;22217;-61
2021/08/18 01:07:15;;;;;;;7.47;5.45;;;;;;;20.39;83.26;98707.80;1870482;76;22170;-64
2021/08/18 01:10:13;;;;;;;8.63;5.70;;;;;;;20.39;83.55;98713.50;1889957;76;22136;-61
2021/08/18 01:12:50;;;;;;;6.87;5.10;;;;;;;20.35;83.88;98709.26;1870456;76;22582;-63
2021/08/18 01:15:29;;;;;;;7.55;4.90;;;;;;;20.30;84.17;98702.00;1870609;76;22149;-59
2021/08/18 01:18:06;;;;;;;7.62;5.08;;;;;;;20.28;84.31;98699.91;1890067;76;22526;-63
2021/08/18 01:20:43;;;;;;;9.20;5.45;;;;;;;20.31;84.36;98705.05;1889988;76;23084;-61
2021/08/18 01:23:18;;;;;;;8.38;5.35;;;;;;;20.33;84.49;98704.09;1870644;76;22156;-61
2021/08/18 01:25:53;;;;;;;7.85;4.75;;;;;;;20.31;84.82;98705.05;1870683;76;22531;-63
2021/08/18 01:28:28;;;;;;;8.68;5.50;;;;;;;20.27;84.93;98716.52;1889971;76;22560;-62
2021/08/18 01:31:04;;;;;;;8.23;4.67;;;;;;;20.26;85.24;98720.06;1870567;76;22161;-59
2021/08/18 01:33:39;;;;;;;9.75;5.10;;;;;;;20.24;85.49;98708.77;1870707;76;22104;-61
2021/08/18 01:36:14;;;;;;;7.08;5.30;;;;;;;20.22;85.66;98704.02;1870667;76;22220;-61
2021/08/18 01:38:50;;;;;;;7.05;4.50;;;;;;;20.18;86.00;98712.45;1870607;76;22105;-62
2021/08/18 01:41:44;;;;;;;7.70;4.58;;;;;;;20.11;86.50;98712.23;1835065;77;22227;-60
2021/08/18 01:44:39;;;;;;;9.13;5.20;;;;;;;20.05;86.87;98709.36;1889903;76;22154;-59
2021/08/18 01:47:33;;;;;;;7.90;5.35;;;;;;;20.06;87.10;98704.52;1870470;76;22113;-62
2021/08/18 01:50:10;;;;;;;9.63;6.12;;;;;;;20.05;87.26;98695.38;1870691;76;22145;-65
2021/08/18 01:52:54;;;;;;;9.58;6.00;;;;;;;20.00;87.60;98696.86;1870701;76;22105;-61
2021/08/18 01:55:29;;;;;;;8.25;5.33;;;;;;;19.94;87.87;98696.58;1870664;76;22543;-62
2021/08/18 01:58:23;;;;;;;7.33;5.33;;;;;;;19.94;88.14;98693.11;1870633;76;22117;-65
2021/08/18 02:00:58;;;;;;;7.60;5.42;;;;;;;19.93;88.31;98686.17;1870607;76;22116;-62
2021/08/18 02:03:35;;;;;;;8.20;5.90;;;;;;;19.94;88.49;98687.87;1889952;76;22128;-61
2021/08/18 02:06:11;;;;;;;8.85;5.40;;;;;;;19.91;88.73;98690.13;1870705;76;20097;-64
2021/08/18 02:08:51;;;;;;;10.23;5.72;;;;;;;19.86;88.75;98690.73;1869812;76;22100;-62
2021/08/18 02:11:27;;;;;;;9.40;5.42;;;;;;;19.82;88.95;98686.94;1890076;76;22136;-62
2021/08/18 02:14:01;;;;;;;6.97;5.42;;;;;;;19.79;89.28;98689.66;1890042;76;22138;-60
2021/08/18 02:16:36;;;;;;;9.90;6.17;;;;;;;19.79;89.45;98692.27;1870829;76;22113;-66
2021/08/18 02:19:11;;;;;;;7.67;5.20;;;;;;;19.77;89.73;98688.84;1870617;76;22128;-59
2021/08/18 02:21:52;;;;;;;7.30;5.42;;;;;;;19.71;89.93;98673.72;1869819;76;22177;-62
2021/08/18 02:24:26;;;;;;;7.90;5.37;;;;;;;19.68;89.99;98663.35;1870701;76;22105;-60
2021/08/18 02:27:20;;;;;;;12.15;5.25;;;;;;;19.70;90.22;98675.09;1889923;76;22159;-63
2021/08/18 02:29:55;;;;;;;8.30;5.42;;;;;;;19.66;90.44;98680.83;1870698;76;22121;-60
2021/08/18 02:32:30;;;;;;;7.17;4.90;;;;;;;19.66;90.56;98689.14;1870790;76;22113;-60
2021/08/18 02:35:26;;;;;;;9.08;5.30;;;;;;;19.65;90.88;98691.37;1870455;76;22147;-64
2021/08/18 02:38:21;;;;;;;7.55;5.20;;;;;;;19.64;90.89;98690.52;1868915;75;22691;-61
2021/08/18 02:40:56;;;;;;;9.73;6.03;;;;;;;19.69;90.92;98691.69;1870689;76;22108;-63
2021/08/18 02:43:30;;;;;;;9.80;5.95;;;;;;;19.71;90.84;98688.13;1870684;76;22141;-64
2021/08/18 02:46:05;;;;;;;8.90;5.60;;;;;;;19.72;90.82;98691.17;1850812;77;22164;-62
2021/08/18 02:48:41;;;;;;;10.00;5.92;;;;;;;19.70;90.82;98689.50;1854643;76;27891;-59
2021/08/18 02:51:20;;;;;;;9.53;5.40;;;;;;;19.75;90.77;98689.37;1870471;76;22120;-61
2021/08/18 02:54:14;;;;;;;8.28;5.03;;;;;;;19.75;90.71;98694.61;1889903;76;22554;-66
2021/08/18 02:56:48;;;;;;;9.23;6.17;;;;;;;19.73;90.69;98688.94;1870667;76;22133;-67
2021/08/18 02:59:23;;;;;;;8.53;5.90;;;;;;;19.71;90.75;98680.27;1870674;76;22144;-63
2021/08/18 03:01:58;;;;;;;8.45;5.58;;;;;;;19.69;90.78;98687.34;1870786;76;22120;-64
2021/08/18 03:04:33;;;;;;;9.05;5.50;;;;;;;19.64;90.95;98683.09;1870692;76;22132;-65
2021/08/18 03:07:14;;;;;;;7.83;5.85;;;;;;;19.61;91.04;98694.52;1869812;76;22153;-60
2021/08/18 03:09:49;;;;;;;10.40;5.83;;;;;;;19.61;91.06;98698.44;1870693;76;22109;-60
2021/08/18 03:12:43;;;;;;;9.13;5.70;;;;;;;19.60;91.18;98701.97;1870618;76;22168;-58
2021/08/18 03:15:19;;;;;;;7.92;5.20;;;;;;;19.57;91.16;98709.92;1854631;76;27920;-59
2021/08/18 03:17:54;;;;;;;7.70;5.00;;;;;;;19.59;91.16;98705.50;1890054;76;22132;-65
2021/08/18 03:20:48;;;;;;;9.38;5.35;;;;;;;19.60;90.98;98715.06;1870683;76;22101;-60
2021/08/18 03:23:23;;;;;;;8.83;5.72;;;;;;;19.54;91.08;98706.09;1870623;76;22156;-57
2021/08/18 03:26:17;;;;;;;9.53;6.17;;;;;;;19.56;91.08;98715.19;1870767;76;22148;-57
2021/08/18 03:29:18;;;;;;;8.05;5.80;;;;;;;19.54;91.10;98723.11;1889877;76;22633;-63
2021/08/18 03:31:54;;;;;;;10.60;6.70;;;;;;;19.53;91.17;98713.52;1889957;76;22131;-61
2021/08/18 03:34:36;;;;;;;10.20;6.45;;;;;;;19.53;91.17;98720.06;1889905;76;22188;-58
2021/08/18 03:37:11;;;;;;;10.15;6.35;;;;;;;19.50;91.29;98715.78;1870630;76;22148;-60
2021/08/18 03:39:45;;;;;;;9.13;6.60;;;;;;;19.43;91.12;98723.85;1870654;76;22538;-64
2021/08/18 03:42:39;;;;;;;9.28;6.62;;;;;;;19.30;91.51;98739.89;1870619;76;22145;-64
2021/08/18 03:45:14;;;;;;;10.03;6.35;;;;;;;19.25;91.78;98737.86;1889952;76;22152;-62
2021/08/18 03:47:50;;;;;;;8.53;6.08;;;;;;;19.21;91.97;98734.94;1873873;76;27902;-61
2021/08/18 03:50:26;;;;;;;9.30;6.42;;;;;;;19.21;92.05;98722.28;1854619;76;27893;-62
2021/08/18 03:53:01;;;;;;;8.40;5.87;;;;;;;19.25;92.05;98723.47;1870630;76;22562;-59
2021/08/18 03:55:36;;;;;;;8.78;5.75;;;;;;;19.29;91.83;98730.80;1890100;76;22132;-59
2021/08/18 03:58:12;;;;;;;9.23;6.37;;;;;;;19.25;91.62;98729.16;1854611;76;27918;-59
2021/08/18 04:00:47;;;;;;;7.47;5.75;;;;;;;19.26;91.59;98738.28;1870674;76;22109;-62
2021/08/18 04:03:41;;;;;;;8.93;6.60;;;;;;;19.25;91.44;98737.86;1870489;76;22144;-64
2021/08/18 04:06:37;;;;;;;10.85;7.12;;;;;;;19.23;91.46;98744.92;1889927;76;22188;-62
2021/08/18 04:09:12;;;;;;;11.45;7.30;;;;;;;19.22;91.62;98754.95;1873931;76;28330;-64
2021/08/18 04:11:47;;;;;;;10.03;7.20;;;;;;;19.29;91.58;98772.20;1870669;76;22596;-61
2021/08/18 04:14:21;;;;;;;12.07;6.92;;;;;;;19.34;91.60;98785.17;1870681;76;22109;-62
2021/08/18 04:16:56;;;;;;;8.85;6.20;;;;;;;19.35;91.80;98776.41;1870685;76;22129;-64
2021/08/18 04:19:31;;;;;;;11.20;6.70;;;;;;;19.32;91.81;98746.41;1870595;76;22156;-64
2021/08/18 04:22:07;;;;;;;10.53;6.40;;;;;;;19.32;92.12;98728.09;1870575;76;22125;-57
2021/08/18 04:24:43;;;;;;;10.28;6.75;;;;;;;19.33;92.28;98730.25;1850828;77;22257;-61
2021/08/18 04:27:19;;;;;;;12.60;7.05;;;;;;;19.33;92.38;98720.63;1889947;76;22131;-65
2021/08/18 04:30:18;;;;;;;8.85;6.28;;;;;;;19.33;92.61;98721.09;1875202;76;22189;-66
2021/08/18 04:33:01;;;;;;;7.50;5.47;;;;;;;19.35;92.97;98714.06;1889954;76;22132;-66
2021/08/18 04:35:36;;;;;;;8.23;5.58;;;;;;;19.34;93.09;98704.51;1870778;76;22254;-65
2021/08/18 04:38:12;;;;;;;8.13;5.37;;;;;;;19.27;93.61;98711.20;1854713;76;27882;-66
2021/08/18 04:40:47;;;;;;;8.85;5.58;;;;;;;19.18;93.83;98691.84;1854775;76;27930;-60
2021/08/18 04:43:23;;;;;;;6.90;5.35;;;;;;;19.09;94.42;98698.66;1870419;76;22185;-62
2021/08/18 04:45:58;;;;;;;10.68;6.20;;;;;;;18.95;95.11;98689.01;1889932;76;22553;-63
2021/08/18 04:48:33;;;;;;;10.53;4.95;;;;;;;18.76;95.62;98707.81;1870618;76;22137;-61
2021/08/18 04:51:28;;;;;;;6.62;4.92;;;;;;;18.64;96.35;98715.94;1889903;76;22155;-62
2021/08/18 04:54:03;;;;;;;7.65;4.97;;;;;;;18.56;96.63;98712.66;1890019;76;22160;-59
2021/08/18 04:56:38;;;;;;;7.35;5.05;;;;;;;18.48;97.00;98718.55;1870675;76;22220;-64
2021/08/18 04:59:13;;;;;;;8.30;4.90;;;;;;;18.41;97.17;98713.45;1870622;76;22167;-65
2021/08/18 05:01:48;;;;;;;9.68;5.08;;;;;;;18.38;97.55;98713.98;1870692;76;22135;-64
2021/08/18 05:04:23;;;;;;;9.30;5.83;;;;;;;18.36;97.84;98716.62;1889942;76;22582;-60
2021/08/18 05:06:59;;;;;;;9.03;7.05;;;;;;;18.36;98.23;98715.77;1889933;76;22556;-65
2021/08/18 05:09:54;;;;;;;10.78;7.50;;;;;;;18.32;98.38;98727.18;1870448;76;22119;-63
2021/08/18 05:12:28;;;;;;;14.10;8.00;;;;;;;18.26;98.35;98717.75;1870764;76;22193;-60
2021/08/18 05:15:05;;;;;;;9.83;7.72;;;;;;;18.11;98.11;98739.00;1870653;76;22136;-64
2021/08/18 05:17:40;;;;;;;9.58;7.22;;;;;;;18.15;98.35;98736.75;1889929;76;22622;-65
2021/08/18 05:20:35;;;;;;;11.18;8.20;;;;;;;18.07;99.02;98746.52;1870450;76;22116;-64
2021/08/18 05:23:10;;;;;;;15.85;8.70;;;;;;;18.12;98.59;98746.81;1890051;76;22877;-64
2021/08/18 05:25:45;;;;;;;14.45;9.15;;;;;;;18.11;98.51;98746.84;1890011;76;22171;-68
2021/08/18 05:28:20;;;;;;;11.00;7.03;;;;;;;18.15;98.40;98753.72;1870612;76;22141;-65
2021/08/18 05:30:57;;;;;;;11.78;7.95;;;;;;;18.20;98.24;98750.55;1854603;76;27921;-64
2021/08/18 05:33:33;;;;;;;12.45;7.58;;;;;;;18.32;97.92;98759.41;1870379;76;22188;-61
2021/08/18 05:36:08;;;;;;;12.45;8.33;;;;;;;18.39;97.62;98766.64;1870579;76;22156;-65
2021/08/18 05:39:04;;;;;;;11.43;9.60;;;;;;;18.36;96.61;98754.51;1870590;76;22137;-64
2021/08/18 05:41:58;;;;;;;16.02;11.65;;;;;;;18.31;96.54;98744.62;1858382;75;38210;-67
2021/08/18 05:44:33;;;;;;;14.95;12.25;;;;;;;18.33;96.41;98756.34;1870593;76;22177;-65
2021/08/18 05:47:30;;;;;;;14.33;12.43;;;;;;;18.32;96.26;98761.14;1889856;76;22175;-64
2021/08/18 05:50:25;;;;;;;16.05;11.73;;;;;;;18.31;96.35;98760.29;1889850;76;22184;-66
2021/08/18 05:53:00;;;;;;;14.87;11.48;;;;;;;18.31;96.14;98770.74;1854625;76;27926;-66
2021/08/18 05:55:38;;;;;;;13.32;10.72;;;;;;;18.38;96.18;98774.93;1870584;76;22547;-67
2021/08/18 05:58:14;;;;;;;14.20;10.32;;;;;;;18.41;96.11;98772.69;1870660;76;22108;-63
2021/08/18 06:00:48;;;;;;;14.87;10.85;;;;;;;18.40;96.06;98758.78;1870671;76;22105;-63
2021/08/18 06:03:44;;;;;;;17.25;10.88;;;;;;;18.42;96.22;98749.61;1870484;76;22211;-58
2021/08/18 06:06:20;;;;;;;16.17;12.53;;;;;;;18.46;96.25;98743.84;1870562;76;22567;-63
2021/08/18 06:08:55;;;;;;;16.73;13.08;;;;;;;18.49;96.16;98738.53;1873886;76;28311;-61
2021/08/18 06:11:30;;;;;;;15.80;12.05;;;;;;;18.55;96.14;98744.48;1870576;76;22135;-60
2021/08/18 06:14:05;;;;;;;15.32;12.30;;;;;;;18.56;95.70;98749.26;1870665;76;22175;-63
2021/08/18 06:16:40;;;;;;;14.83;11.60;;;;;;;18.52;95.64;98758.94;1854561;76;28075;-67
2021/08/18 06:19:16;;;;;;;14.75;11.90;;;;;;;18.54;95.58;98761.04;1870649;76;22136;-65
2021/08/18 06:21:51;;;;;;;17.70;14.30;;;;;;;18.50;95.28;98778.17;1854876;76;27882;-62
2021/08/18 06:24:29;;;;;;;17.65;15.08;;;;;;;18.53;95.24;98791.16;1870503;76;22103;-63
2021/08/18 06:27:25;;;;;;;19.42;15.28;;;;;;;18.52;94.99;98816.86;1889932;76;22200;-59
2021/08/18 06:30:01;;;;;;;20.00;13.13;;;;;;;18.55;95.10;98820.27;1870528;76;22583;-62
2021/08/18 06:32:37;;;;;;;19.40;13.53;;;;;;;18.65;94.93;98791.71;1873917;76;27926;-61
2021/08/18 06:35:32;;;;;;;16.75;14.13;;;;;;;18.77;93.69;98764.41;1889872;76;22113;-67
2021/08/18 06:38:29;;;;;;;21.02;15.65;;;;;;;18.70;93.46;98761.97;1870484;76;22145;-64
2021/08/18 06:41:04;;;;;;;16.77;13.88;;;;;;;18.55;94.12;98750.16;1870533;76;22168;-62
2021/08/18 06:43:39;;;;;;;17.95;15.55;;;;;;;18.36;94.96;98761.04;1854618;76;27940;-60
2021/08/18 06:46:15;;;;;;;14.33;11.75;;;;;;;18.28;95.82;98778.66;1873853;76;27901;-62
2021/08/18 06:48:50;;;;;;;14.20;9.65;;;;;;;18.27;96.45;98780.87;1870640;76;22562;-64
2021/08/18 06:51:25;;;;;;;10.90;8.85;;;;;;;18.17;96.87;98778.91;1870668;76;22540;-59
2021/08/18 06:53:59;;;;;;;12.70;9.60;;;;;;;18.06;97.26;98786.56;1870710;76;22160;-62
2021/08/18 06:56:54;;;;;;;14.00;9.90;;;;;;;17.97;97.71;98797.63;1870693;76;22167;-63
2021/08/18 06:59:30;;;;;;;12.73;10.08;;;;;;;17.86;98.05;98800.05;1889955;76;22598;-62
2021/08/18 07:02:05;;;;;;;13.30;10.75;;;;;;;17.91;98.37;98799.08;1854663;76;28298;-64
2021/08/18 07:04:47;;;;;;;16.95;10.85;;;;;;;17.95;98.41;98795.49;1889886;76;22626;-66
2021/08/18 07:07:43;;;;;;;13.35;10.78;;;;;;;17.96;98.53;98792.42;1870586;76;22540;-64
2021/08/18 07:10:38;;;;;;;13.32;11.05;;;;;;;17.91;98.51;98788.64;1881122;75;22213;-62
2021/08/18 07:13:14;;;;;;;14.87;11.15;;;;;;;17.94;98.96;98776.81;1870648;76;22160;-65
2021/08/18 07:16:09;;;;;;;16.85;11.45;;;;;;;18.00;98.68;98774.05;1890095;76;22112;-64
2021/08/18 07:18:44;;;;;;;17.12;11.50;;;;;;;18.00;98.24;98757.08;1870532;76;20351;-62
2021/08/18 07:21:20;;;;;;;15.88;10.63;;;;;;;17.82;97.39;98748.36;1870768;76;22559;-61
2021/08/18 07:23:57;;;;;;;16.60;12.40;;;;;;;17.80;98.22;98747.53;1889939;76;22135;-64
2021/08/18 07:26:32;;;;;;;16.20;11.68;;;;;;;17.86;98.02;98750.02;1835083;77;38746;-67
2021/08/18 07:29:07;;;;;;;13.25;10.63;;;;;;;17.92;97.99;98734.66;1889927;76;22542;-61
2021/08/18 07:32:01;;;;;;;13.30;11.03;;;;;;;17.86;98.10;98721.30;1870667;76;22540;-62
2021/08/18 07:34:37;;;;;;;16.15;10.68;;;;;;;17.75;97.73;98730.63;1850749;77;22581;-62
2021/08/18 07:37:12;;;;;;;12.25;10.35;;;;;;;17.72;97.52;98736.37;1889926;76;22554;-60
2021/08/18 07:39:48;;;;;;;15.72;12.05;;;;;;;17.75;97.92;98720.63;1889882;76;22135;-63
2021/08/18 07:42:24;;;;;;;16.32;11.10;;;;;;;17.74;98.04;98718.48;1854627;76;27901;-62
2021/08/18 07:45:19;;;;;;;12.47;10.25;;;;;;;17.84;97.71;98717.87;1870382;76;22152;-64
2021/08/18 07:47:55;;;;;;;11.73;9.30;;;;;;;17.86;97.84;98726.53;1890028;76;22123;-63
2021/08/18 07:50:30;;;;;;;12.37;9.53;;;;;;;17.87;97.64;98733.45;1870595;76;22137;-66
2021/08/18 07:53:23;;;;;;;12.10;9.83;;;;;;;17.86;97.46;98736.97;1889929;76;22112;-68
2021/08/18 07:55:58;;;;;;;13.95;10.75;;;;;;;17.86;97.20;98739.58;1870652;76;22117;-64
2021/08/18 07:58:33;;;;;;;18.15;11.60;;;;;;;17.86;97.13;98733.47;1870587;76;22174;-63
2021/08/18 08:01:27;;;;;;;18.23;12.00;;;;;;;17.89;97.12;98747.34;1870689;76;22557;-64
2021/08/18 08:04:02;;;;;;;14.78;11.73;;;;;;;17.98;97.01;98744.50;1870650;76;22527;-63
2021/08/18 08:06:56;;;;;;;15.30;11.95;;;;;;;18.12;96.73;98744.20;1870545;76;22168;-66
2021/08/18 08:09:38;;;;;;;17.20;11.45;;;;;;;18.31;96.65;98744.62;1889940;76;22628;-58
2021/08/18 08:12:13;;;;;;;16.00;10.18;;;;;;;18.49;95.80;98729.39;1870636;76;22112;-64
2021/08/18 08:14:48;;;;;;;15.58;9.55;;;;;;;18.57;94.86;98730.05;1870552;76;22555;-65
2021/08/18 08:17:23;;;;;;;12.68;9.70;;;;;;;18.67;94.61;98743.30;1870648;76;22567;-65
2021/08/18 08:19:58;;;;;;;11.68;8.18;;;;;;;18.68;94.07;98738.50;1870575;76;22547;-63
2021/08/18 08:22:33;;;;;;;13.72;10.00;;;;;;;18.72;93.93;98734.89;1870657;76;22148;-67
2021/08/18 08:25:10;;;;;;;13.15;9.43;;;;;;;18.79;93.39;98729.95;1870684;76;22141;-69
2021/08/18 08:27:45;;;;;;;13.88;9.18;;;;;;;18.85;93.00;98727.61;1870606;76;22153;-67
2021/08/18 08:30:39;;;;;;;11.20;8.88;;;;;;;18.85;92.71;98727.61;1870601;76;22169;-65
2021/08/18 08:33:15;;;;;;;12.73;9.40;;;;;;;18.82;92.29;98732.48;1870759;76;22140;-62
2021/08/18 08:35:50;;;;;;;15.32;9.88;;;;;;;18.75;91.88;98740.09;1873864;76;28478;-61
2021/08/18 08:38:31;;;;;;;13.88;9.25;;;;;;;18.85;92.33;98745.50;1869788;76;22139;-60
2021/08/18 08:41:07;;;;;;;11.43;7.45;;;;;;;18.94;91.66;98750.92;1870654;76;22133;-63
2021/08/18 08:43:42;;;;;;;12.03;8.43;;;;;;;18.95;90.92;98762.23;1870701;76;22109;-63
2021/08/18 08:46:17;;;;;;;13.35;8.25;;;;;;;19.00;91.11;98768.20;1870646;76;22515;-60
2021/08/18 08:48:54;;;;;;;12.63;8.38;;;;;;;19.15;90.94;98769.09;1870778;76;22547;-65
2021/08/18 08:51:31;;;;;;;11.95;8.33;;;;;;;19.25;89.78;98765.33;1889933;76;22144;-61
2021/08/18 08:54:06;;;;;;;10.28;7.72;;;;;;;19.36;89.35;98761.55;1870668;76;22779;-65
2021/08/18 08:56:42;;;;;;;12.25;8.33;;;;;;;19.48;89.00;98767.77;1854652;76;28370;-62
2021/08/18 08:59:37;;;;;;;12.55;8.25;;;;;;;19.61;88.34;98773.05;1870538;76;22244;-62
2021/08/18 09:02:13;;;;;;;15.00;8.13;;;;;;;19.60;87.46;98768.72;1870688;76;22104;-67
2021/08/18 09:05:09;;;;;;;12.63;8.03;;;;;;;19.53;87.39;98763.25;1870486;76;22199;-65
2021/08/18 09:07:46;;;;;;;13.65;8.75;;;;;;;19.53;87.71;98763.25;1854791;76;28329;-63
2021/08/18 09:10:40;;;;;;;18.05;9.50;;;;;;;19.69;87.27;98764.58;1854727;76;28093;-65
2021/08/18 09:13:17;;;;;;;11.80;8.68;;;;;;;19.84;86.92;98755.84;1889976;76;22108;-66
2021/08/18 09:16:13;;;;;;;13.32;8.00;;;;;;;19.93;86.53;98766.91;1854737;76;27911;-65
2021/08/18 09:18:51;;;;;;;10.98;7.85;;;;;;;20.04;86.01;98767.88;1890117;76;22139;-64
2021/08/18 09:21:37;;;;;;;11.85;8.88;;;;;;;20.06;85.79;98759.98;1870642;76;22149;-58
2021/08/18 09:24:26;;;;;;;13.70;9.70;;;;;;;20.00;85.83;98762.34;1854767;76;28458;-61
2021/08/18 09:27:08;;;;;;;13.68;8.70;;;;;;;19.94;85.52;98771.69;1870717;76;22105;-66
2021/08/18 09:30:08;;;;;;;14.73;9.28;;;;;;;19.78;85.41;98764.74;1870535;76;22588;-67
2021/08/18 09:33:18;;;;;;;11.90;8.98;;;;;;;19.60;85.83;98767.41;1870699;76;22164;-65
2021/08/18 09:36:16;;;;;;;16.17;9.68;;;;;;;19.51;86.55;98770.28;1870587;76;22214;-67
2021/08/18 09:39:25;;;;;;;11.43;8.65;;;;;;;19.39;87.13;98774.58;1870583;76;22156;-62
2021/08/18 09:42:01;;;;;;;10.58;9.28;;;;;;;19.36;87.81;98785.99;1889875;76;22180;-64
2021/08/18 09:44:37;;;;;;;11.15;9.38;;;;;;;19.42;88.09;98787.58;1870485;76;22160;-64
2021/08/18 09:47:13;;;;;;;14.83;10.53;;;;;;;19.49;87.67;98793.91;1889933;76;22187;-65
2021/08/18 09:50:08;;;;;;;17.57;10.08;;;;;;;19.50;87.69;98795.61;1889916;76;22112;-62
2021/08/18 09:53:14;;;;;;;12.40;9.88;;;;;;;19.53;87.74;98794.66;1889868;76;22135;-62
2021/08/18 09:55:57;;;;;;;13.53;9.80;;;;;;;19.66;88.10;98803.87;1854795;76;27942;-62
2021/08/18 09:58:55;;;;;;;12.37;9.05;;;;;;;19.84;88.13;98806.91;1870408;76;22173;-62
2021/08/18 10:01:30;;;;;;;11.63;8.78;;;;;;;19.86;87.57;98816.89;1889966;76;22131;-63
2021/08/18 10:04:25;;;;;;;12.47;8.55;;;;;;;19.86;87.85;98811.66;1870537;76;22121;-66
2021/08/18 10:07:19;;;;;;;11.00;7.55;;;;;;;19.87;87.65;98812.05;1870648;76;22141;-66
2021/08/18 10:09:55;;;;;;;10.43;8.25;;;;;;;19.81;87.45;98810.93;1854806;76;27923;-59
2021/08/18 10:12:31;;;;;;;11.97;8.18;;;;;;;19.69;87.30;98809.09;1854793;76;27909;-61
2021/08/18 10:15:25;;;;;;;10.68;7.65;;;;;;;19.54;87.34;98805.56;1870568;76;22540;-63
2021/08/18 10:18:01;;;;;;;12.73;8.48;;;;;;;19.45;88.15;98805.34;1854688;76;27901;-63
2021/08/18 10:20:38;;;;;;;11.00;7.30;;;;;;;19.50;88.41;98792.14;1870660;76;22137;-66
2021/08/18 10:23:19;;;;;;;10.55;7.53;;;;;;;19.41;88.24;98792.38;1869837;76;22137;-63
2021/08/18 10:26:38;;;;;;;11.28;7.60;;;;;;;19.29;88.64;98787.91;1870527;76;22144;-64
2021/08/18 10:29:18;;;;;;;13.88;8.40;;;;;;;19.34;89.22;98785.62;1890020;76;22108;-66
2021/08/18 10:32:13;;;;;;;12.63;9.10;;;;;;;19.49;89.29;98790.44;1889877;76;22119;-60
2021/08/18 10:34:50;;;;;;;15.38;9.10;;;;;;;19.71;88.70;98788.08;1873882;76;28586;-69
2021/08/18 10:37:27;;;;;;;8.65;7.33;;;;;;;19.88;86.90;98775.81;1889936;76;22135;-62
2021/08/18 10:40:13;;;;;;;11.28;8.40;;;;;;;20.10;85.90;98773.41;1868913;76;22158;-62
2021/08/18 10:43:08;;;;;;;11.55;8.15;;;;;;;20.27;84.66;98772.41;1870561;76;22567;-66
2021/08/18 10:45:48;;;;;;;10.08;8.78;;;;;;;20.31;84.00;98781.89;1889939;76;22543;-65
2021/08/18 10:49:01;;;;;;;12.90;7.65;;;;;;;20.38;83.05;98778.64;1870556;76;22121;-64
2021/08/18 10:51:44;;;;;;;13.25;7.92;;;;;;;20.68;81.95;98775.48;1870504;76;22108;-66
2021/08/18 10:54:43;;;;;;;10.90;6.67;;;;;;;20.82;80.70;98772.41;1889945;76;22144;-65
2021/08/18 10:57:48;;;;;;;9.43;7.50;;;;;;;20.93;79.03;98765.02;1870624;76;22109;-66
2021/08/18 11:00:41;;;;;;;12.60;8.40;;;;;;;20.97;78.46;98762.71;1870653;76;22136;-65
2021/08/18 11:03:27;;;;;;;10.40;7.67;;;;;;;20.94;78.58;98760.20;1869690;76;22156;-65
2021/08/18 11:06:01;;;;;;;11.40;7.30;;;;;;;20.90;76.97;98748.08;1870776;76;22198;-66
2021/08/18 11:08:44;;;;;;;8.30;6.55;;;;;;;20.81;77.65;98754.52;1870654;76;22133;-64
2021/08/18 11:11:19;;;;;;;11.63;7.60;;;;;;;20.76;77.82;98754.24;1870642;76;22140;-66
2021/08/18 11:14:09;;;;;;;9.75;7.20;;;;;;;20.77;78.09;98754.67;1870562;76;20098;-65
2021/08/18 11:16:44;;;;;;;10.93;6.85;;;;;;;20.92;78.21;98751.98;1870573;76;22580;-64
2021/08/18 11:19:41;;;;;;;12.18;7.28;;;;;;;21.07;76.56;98742.27;1889887;76;22176;-61
2021/08/18 11:22:19;;;;;;;7.60;6.55;;;;;;;21.24;76.98;98741.64;1870400;76;22169;-63
2021/08/18 11:25:02;;;;;;;10.53;6.70;;;;;;;21.40;76.08;98731.03;1889916;76;22167;-62
2021/08/18 11:27:37;;;;;;;13.50;6.75;;;;;;;21.43;74.66;98721.72;1870554;76;22196;-66
2021/08/18 11:30:32;;;;;;;10.28;6.67;;;;;;;21.43;75.00;98723.04;1870633;76;22226;-62
2021/08/18 11:33:27;;;;;;;10.58;7.35;;;;;;;21.44;75.00;98719.48;1870510;76;22146;-62
2021/08/18 11:36:16;;;;;;;8.58;6.45;;;;;;;21.55;75.01;98723.48;1869837;76;22168;-65
2021/08/18 11:38:59;;;;;;;7.67;5.40;;;;;;;21.76;74.03;98720.05;1889936;76;22112;-62
2021/08/18 11:41:40;;;;;;;8.00;5.85;;;;;;;21.92;72.00;98728.19;1870705;76;22185;-68
2021/08/18 11:44:26;;;;;;;7.72;5.60;;;;;;;21.96;71.56;98728.95;1889953;76;22534;-65
2021/08/18 11:47:19;;;;;;;10.75;5.55;;;;;;;21.93;71.66;98718.10;1870610;76;22157;-63
2021/08/18 11:49:54;;;;;;;10.03;5.67;;;;;;;21.89;71.33;98719.13;1870673;76;22109;-62
2021/08/18 11:52:54;;;;;;;8.50;6.17;;;;;;;21.98;72.22;98724.46;1890061;76;22104;-64
2021/08/18 11:56:02;;;;;;;11.35;6.35;;;;;;;22.22;72.28;98720.91;1870574;76;22143;-63
2021/08/18 11:58:37;;;;;;;9.40;5.85;;;;;;;22.43;70.02;98713.05;1870487;76;22108;-64
2021/08/18 12:01:32;;;;;;;5.67;4.35;;;;;;;22.31;68.75;98707.39;1870629;76;22524;-65
2021/08/18 12:04:07;;;;;;;7.70;4.80;;;;;;;22.08;67.26;98706.09;1870551;76;22169;-66
2021/08/18 12:07:13;;;;;;;7.45;5.45;;;;;;;21.77;67.63;98699.89;1870492;76;22140;-66
2021/08/18 12:10:26;;;;;;;7.78;5.67;;;;;;;21.81;68.74;98700.19;1870700;76;22104;-66
2021/08/18 12:13:17;;;;;;;8.85;5.90;;;;;;;22.08;69.67;98695.16;1870689;76;22108;-64
2021/08/18 12:16:30;;;;;;;9.88;5.75;;;;;;;22.53;69.14;98696.82;1870645;76;22139;-61
2021/08/18 12:19:21;;;;;;;7.85;5.20;;;;;;;22.78;66.97;98702.36;1870676;76;22131;-66
2021/08/18 12:22:19;;;;;;;6.70;5.10;;;;;;;23.10;65.91;98709.34;1870783;76;22136;-65
2021/08/18 12:25:14;;;;;;;7.83;5.70;;;;;;;23.39;64.69;98708.05;1870723;76;22239;-65
2021/08/18 12:28:19;;;;;;;8.63;5.50;;;;;;;23.47;64.64;98706.37;1869814;76;22120;-64
2021/08/18 12:31:05;;;;;;;9.28;5.05;;;;;;;23.57;65.30;98707.67;1870483;76;22167;-63
2021/08/18 12:34:08;;;;;;;7.60;5.00;;;;;;;23.60;63.19;98707.05;1889850;76;22581;-63
2021/08/18 12:37:07;;;;;;;8.68;5.08;;;;;;;23.30;63.38;98707.13;1870559;76;22592;-65